createdAt,value
2023-03-14T00:01:17.468Z,2.28
2023-03-14T00:03:44.724Z,2.22
2023-03-14T00:06:11.792Z,1.88
2023-03-14T00:08:38.610Z,2.13
2023-03-14T00:11:07.796Z,2.05
2023-03-14T00:13:34.531Z,2.10
2023-03-14T00:16:10.993Z,1.65
2023-03-14T00:18:38.274Z,2.45
2023-03-14T00:21:06.313Z,1.77
2023-03-14T00:23:36.241Z,2.22
2023-03-14T00:26:09.158Z,2.03
2023-03-14T00:28:37.240Z,2.08
2023-03-14T00:31:05.536Z,1.98
2023-03-14T00:33:35.033Z,1.83
2023-03-14T00:36:05.944Z,2.50
2023-03-14T00:38:34.724Z,1.70
2023-03-14T00:41:05.646Z,2.05
2023-03-14T00:43:32.458Z,2.17
2023-03-14T00:45:59.375Z,2.08
2023-03-14T00:48:25.962Z,5.35
2023-03-14T00:50:52.508Z,2.20
2023-03-14T00:53:19.481Z,2.42
2023-03-14T00:55:47.103Z,1.75
2023-03-14T00:58:16.206Z,1.75
2023-03-14T01:00:44.223Z,2.00
2023-03-14T01:03:12.103Z,1.70
2023-03-14T01:05:39.109Z,2.08
2023-03-14T01:08:09.604Z,2.10
2023-03-14T01:10:41.180Z,2.22
2023-03-14T01:13:08.859Z,1.90
2023-03-14T01:15:39.369Z,1.85
2023-03-14T01:18:06.027Z,2.78
2023-03-14T01:20:32.642Z,1.70
2023-03-14T01:22:59.374Z,2.00
2023-03-14T01:25:26.136Z,1.90
2023-03-14T01:27:52.669Z,1.70
2023-03-14T01:30:19.298Z,2.13
2023-03-14T01:32:46.003Z,1.98
2023-03-14T01:35:12.771Z,2.05
2023-03-14T01:37:39.398Z,1.75
2023-03-14T01:40:06.840Z,1.58
2023-03-14T01:42:33.705Z,1.80
2023-03-14T01:45:02.418Z,2.85
2023-03-14T01:47:29.121Z,2.08
2023-03-14T01:50:07.698Z,1.90
2023-03-14T01:52:43.046Z,1.80
2023-03-14T01:55:18.869Z,1.45
2023-03-14T01:57:51.022Z,1.93
2023-03-14T02:00:23.591Z,1.58
2023-03-14T02:02:56.661Z,1.65
2023-03-14T02:05:26.743Z,1.92
2023-03-14T02:07:56.695Z,1.80
2023-03-14T02:10:31.176Z,1.73
2023-03-14T02:13:00.557Z,1.80
2023-03-14T02:15:27.149Z,1.55
2023-03-14T02:17:54.157Z,2.00
2023-03-14T02:20:51.492Z,1.85
2023-03-14T02:23:27.784Z,1.67
2023-03-14T02:26:09.641Z,1.77
2023-03-14T02:28:36.149Z,2.05
2023-03-14T02:31:02.947Z,1.90
2023-03-14T02:33:29.559Z,1.67
2023-03-14T02:36:02.186Z,1.70
2023-03-14T02:38:36.068Z,1.35
2023-03-14T02:41:02.980Z,2.28
2023-03-14T02:43:29.631Z,1.65
2023-03-14T02:45:56.809Z,2.05
2023-03-14T02:48:26.957Z,1.85
2023-03-14T02:50:56.865Z,1.27
2023-03-14T02:53:27.676Z,1.42
2023-03-14T02:55:54.351Z,1.70
2023-03-14T02:58:21.351Z,1.35
2023-03-14T03:00:48.805Z,1.20
2023-03-14T03:03:16.043Z,1.70
2023-03-14T03:05:44.815Z,1.17
2023-03-14T03:08:11.743Z,1.90
2023-03-14T03:10:38.314Z,1.25
2023-03-14T03:13:05.050Z,1.20
2023-03-14T03:15:31.641Z,1.58
2023-03-14T03:17:58.190Z,2.03
2023-03-14T03:20:24.973Z,1.70
2023-03-14T03:22:51.825Z,1.30
2023-03-14T03:25:18.520Z,1.20
2023-03-14T03:27:45.188Z,1.42
2023-03-14T03:30:12.143Z,1.40
2023-03-14T03:32:38.716Z,1.45
2023-03-14T03:35:06.351Z,1.60
2023-03-14T03:37:33.678Z,1.60
2023-03-14T03:40:01.597Z,1.67
2023-03-14T03:42:28.945Z,1.40
2023-03-14T03:44:55.512Z,1.67
2023-03-14T03:47:22.247Z,1.45
2023-03-14T03:49:49.881Z,1.77
2023-03-14T03:52:17.718Z,1.35
2023-03-14T03:54:44.310Z,1.50
2023-03-14T03:57:11.026Z,1.73
2023-03-14T03:59:39.746Z,1.48
2023-03-14T04:02:06.328Z,1.38
2023-03-14T04:04:33.086Z,1.45
2023-03-14T04:06:59.781Z,1.83
2023-03-14T04:09:26.592Z,1.73
2023-03-14T04:11:53.194Z,1.85
2023-03-14T04:14:19.879Z,0.95
2023-03-14T04:16:46.464Z,1.80
2023-03-14T04:19:12.983Z,1.85
2023-03-14T04:21:45.246Z,1.40
2023-03-14T04:24:12.234Z,1.58
2023-03-14T04:26:38.890Z,1.45
2023-03-14T04:29:05.649Z,1.35
2023-03-14T04:31:32.271Z,1.20
2023-03-14T04:33:58.986Z,1.42
2023-03-14T04:36:25.649Z,1.58
2023-03-14T04:38:53.286Z,1.65
2023-03-14T04:41:19.857Z,1.27
2023-03-14T04:43:46.455Z,1.20
2023-03-14T04:46:13.073Z,1.20
2023-03-14T04:48:40.060Z,1.42
2023-03-14T04:51:07.010Z,1.35
2023-03-14T04:53:35.067Z,1.92
2023-03-14T04:56:02.234Z,1.50
2023-03-14T04:58:28.764Z,1.70
2023-03-14T05:00:55.533Z,1.55
2023-03-14T05:03:22.746Z,2.50
2023-03-14T05:05:49.352Z,1.40
2023-03-14T05:08:15.949Z,1.80
2023-03-14T05:10:42.572Z,1.52
2023-03-14T05:13:09.439Z,1.75
2023-03-14T05:15:36.131Z,1.60
2023-03-14T05:18:02.640Z,1.55
2023-03-14T05:20:29.314Z,1.80
2023-03-14T05:23:14.821Z,1.92
2023-03-14T05:25:41.524Z,2.05
2023-03-14T05:28:08.072Z,2.00
2023-03-14T05:30:34.837Z,1.73
2023-03-14T05:33:01.496Z,1.65
2023-03-14T05:35:28.211Z,2.40
2023-03-14T05:37:54.849Z,1.92
2023-03-14T05:40:21.569Z,1.73
2023-03-14T05:42:48.408Z,1.58
2023-03-14T05:45:15.160Z,1.73
2023-03-14T05:47:41.715Z,2.33
2023-03-14T05:50:09.051Z,1.55
2023-03-14T05:52:35.699Z,1.60
2023-03-14T05:55:02.319Z,1.80
2023-03-14T05:57:28.967Z,1.70
2023-03-14T05:59:55.514Z,1.52
2023-03-14T06:02:22.251Z,2.00
2023-03-14T06:04:48.970Z,1.42
2023-03-14T06:07:15.541Z,1.45
2023-03-14T06:09:42.183Z,1.70
2023-03-14T06:12:08.816Z,2.28
2023-03-14T06:14:35.357Z,1.60
2023-03-14T06:17:01.872Z,1.60
2023-03-14T06:19:28.656Z,1.90
2023-03-14T06:21:56.980Z,1.30
2023-03-14T06:24:23.562Z,1.60
2023-03-14T06:26:50.379Z,1.48
2023-03-14T06:29:17.057Z,1.63
2023-03-14T06:31:43.783Z,1.15
2023-03-14T06:34:10.525Z,1.50
2023-03-14T06:36:38.102Z,1.98
2023-03-14T06:39:04.687Z,2.10
2023-03-14T06:41:31.351Z,2.05
2023-03-14T06:43:57.888Z,1.90
2023-03-14T06:46:24.656Z,2.05
2023-03-14T06:48:51.435Z,1.65
2023-03-14T06:51:18.196Z,1.13
2023-03-14T06:53:44.887Z,1.52
2023-03-14T06:56:11.755Z,1.33
2023-03-14T06:58:38.427Z,1.70
2023-03-14T07:01:05.317Z,1.35
2023-03-14T07:03:32.185Z,1.17
2023-03-14T07:05:58.763Z,1.40
2023-03-14T07:08:25.481Z,1.23
2023-03-14T07:10:52.189Z,1.33
2023-03-14T07:13:19.043Z,2.00
2023-03-14T07:15:45.964Z,1.13
2023-03-14T07:18:12.818Z,1.35
2023-03-14T07:20:39.434Z,1.60
2023-03-14T07:23:06.121Z,1.90
2023-03-14T07:25:32.747Z,1.33
2023-03-14T07:27:59.480Z,2.22
2023-03-14T07:30:33.403Z,1.63
2023-03-14T07:33:01.227Z,1.80
2023-03-14T07:35:28.914Z,1.20
2023-03-14T07:37:55.455Z,1.42
2023-03-14T07:40:22.119Z,1.40
2023-03-14T07:42:49.276Z,2.10
2023-03-14T07:45:16.303Z,1.63
2023-03-14T07:47:42.994Z,1.55
2023-03-14T07:50:10.537Z,1.70
2023-03-14T07:52:37.148Z,1.60
2023-03-14T07:55:04.193Z,1.88
2023-03-14T07:57:30.820Z,1.92
2023-03-14T07:59:57.465Z,1.90
2023-03-14T08:02:25.150Z,1.60
2023-03-14T08:04:51.842Z,2.10
2023-03-14T08:07:18.443Z,1.65
2023-03-14T08:09:45.131Z,1.52
2023-03-14T08:12:11.821Z,1.30
2023-03-14T08:14:38.480Z,2.08
2023-03-14T08:17:05.816Z,1.42
2023-03-14T08:19:32.568Z,2.33
2023-03-14T08:21:59.269Z,1.23
2023-03-14T08:24:26.181Z,0.77
2023-03-14T08:26:52.863Z,0.45
2023-03-14T08:29:19.480Z,0.40
2023-03-14T08:31:46.131Z,0.40
2023-03-14T08:34:12.947Z,0.60
2023-03-14T08:36:39.522Z,0.40
2023-03-14T08:39:08.580Z,0.32
2023-03-14T08:41:41.141Z,0.35
2023-03-14T08:44:08.625Z,0.43
2023-03-14T08:46:35.695Z,0.45
2023-03-14T08:49:02.433Z,0.73
2023-03-14T08:51:29.064Z,0.60
2023-03-14T08:53:55.699Z,1.20
2023-03-14T08:56:24.392Z,1.15
2023-03-14T08:58:52.517Z,0.88
2023-03-14T09:01:20.314Z,0.45
2023-03-14T09:03:49.151Z,0.70
2023-03-14T09:06:18.912Z,0.57
2023-03-14T09:08:46.890Z,0.65
2023-03-14T09:11:14.029Z,0.50
2023-03-14T09:13:41.710Z,0.40
2023-03-14T09:16:09.581Z,0.30
2023-03-14T09:18:36.378Z,0.60
2023-03-14T09:21:03.286Z,0.30
2023-03-14T09:23:29.892Z,0.45
2023-03-14T09:25:57.831Z,0.30
2023-03-14T09:28:25.770Z,0.25
2023-03-14T09:30:52.537Z,0.30
2023-03-14T09:33:19.791Z,0.10
2023-03-14T09:35:46.644Z,0.28
2023-03-14T09:38:13.598Z,0.57
2023-03-14T09:40:40.365Z,0.30
2023-03-14T09:43:06.951Z,0.57
2023-03-14T09:45:41.369Z,0.40
2023-03-14T09:48:16.581Z,0.22
2023-03-14T09:50:47.409Z,0.60
2023-03-14T09:53:18.702Z,0.47
2023-03-14T09:55:47.901Z,0.20
2023-03-14T09:58:18.732Z,0.30
2023-03-14T10:00:45.808Z,0.30
2023-03-14T10:03:18.199Z,0.38
2023-03-14T10:05:47.039Z,0.47
2023-03-14T10:08:14.998Z,0.30
2023-03-14T10:10:42.003Z,0.50
2023-03-14T10:13:28.944Z,0.50
2023-03-14T10:16:03.232Z,0.55
2023-03-14T10:18:31.825Z,0.45
2023-03-14T10:21:08.955Z,0.47
2023-03-14T10:23:36.610Z,0.50
2023-03-14T10:26:13.689Z,0.20
2023-03-14T10:28:52.887Z,0.40
2023-03-14T10:31:25.553Z,0.63
2023-03-14T10:34:05.001Z,0.50
2023-03-14T10:36:33.936Z,0.70
2023-03-14T10:39:41.955Z,0.73
2023-03-14T10:42:25.022Z,0.85
2023-03-14T10:44:57.298Z,0.77
2023-03-14T10:47:26.476Z,0.73
2023-03-14T10:49:53.470Z,1.08
2023-03-14T10:52:30.919Z,1.27
2023-03-14T10:55:11.271Z,1.02
2023-03-14T10:57:54.512Z,1.20
2023-03-14T11:00:38.784Z,1.23
2023-03-14T11:03:13.845Z,1.17
2023-03-14T11:06:01.907Z,2.20
2023-03-14T11:09:08.778Z,1.20
2023-03-14T11:11:35.676Z,1.55
2023-03-14T11:14:03.290Z,1.55
2023-03-14T11:16:51.071Z,2.20
2023-03-14T11:19:43.871Z,2.00
2023-03-14T11:22:19.834Z,2.30
2023-03-14T11:24:46.368Z,2.13
2023-03-14T11:27:23.856Z,1.50
2023-03-14T11:30:14.931Z,2.13
2023-03-14T11:32:53.954Z,1.88
2023-03-14T11:35:24.775Z,1.83
2023-03-14T11:38:02.938Z,1.80
2023-03-14T11:40:29.591Z,2.38
2023-03-14T11:43:18.503Z,2.70
2023-03-14T11:45:48.313Z,2.00
2023-03-14T11:48:35.634Z,2.20
2023-03-14T11:54:10.885Z,2.85
2023-03-14T11:56:58.260Z,2.42
2023-03-14T12:02:13.400Z,1.95
2023-03-14T12:05:17.308Z,1.92
2023-03-14T12:08:01.762Z,2.33
2023-03-14T12:10:31.744Z,2.03
2023-03-14T12:12:59.804Z,3.08
2023-03-14T12:15:26.965Z,2.08
2023-03-14T12:17:57.020Z,2.50
2023-03-14T12:20:27.524Z,2.17
2023-03-14T12:23:06.646Z,2.13
2023-03-14T12:25:35.034Z,2.00
2023-03-14T12:28:06.330Z,1.80
2023-03-14T12:30:43.181Z,2.15
2023-03-14T12:35:51.396Z,3.08
2023-03-14T12:38:27.113Z,1.50
2023-03-14T12:41:18.433Z,2.20
2023-03-14T12:43:45.228Z,1.67
2023-03-14T12:46:24.362Z,2.03
2023-03-14T12:49:08.528Z,2.83
2023-03-14T12:51:46.467Z,1.63
2023-03-14T12:54:52.193Z,1.77
2023-03-14T12:57:34.687Z,1.02
2023-03-14T13:00:17.604Z,1.52
2023-03-14T13:02:45.939Z,2.17
2023-03-14T13:05:18.700Z,1.40
2023-03-14T13:07:48.200Z,1.92
2023-03-14T13:10:19.191Z,1.27
2023-03-14T13:12:55.805Z,2.13
2023-03-14T13:15:25.158Z,2.03
2023-03-14T13:17:56.348Z,1.45
2023-03-14T13:20:31.866Z,2.22
2023-03-14T13:22:58.511Z,1.40
2023-03-14T13:25:25.298Z,1.55
2023-03-14T13:27:56.764Z,1.70
2023-03-14T13:30:29.690Z,1.13
2023-03-14T13:32:57.025Z,1.63
2023-03-14T13:35:26.075Z,1.35
2023-03-14T13:38:10.561Z,1.67
2023-03-14T13:40:38.385Z,1.25
2023-03-14T13:43:29.203Z,0.88
2023-03-14T13:46:07.330Z,1.25
2023-03-14T13:48:39.973Z,1.42
2023-03-14T13:51:10.230Z,1.27
2023-03-14T13:53:47.359Z,0.93
2023-03-14T13:56:14.748Z,1.45
2023-03-14T13:58:42.207Z,0.98
2023-03-14T14:01:16.843Z,1.13
2023-03-14T14:03:46.428Z,1.40
2023-03-14T14:06:18.987Z,1.40
2023-03-14T14:08:46.178Z,1.45
2023-03-14T14:11:25.998Z,1.60
2023-03-14T14:13:56.213Z,1.40
2023-03-14T14:16:26.900Z,1.45
2023-03-14T14:18:55.834Z,1.60
2023-03-14T14:21:22.674Z,1.33
2023-03-14T14:23:50.177Z,1.35
2023-03-14T14:26:21.235Z,1.27
2023-03-14T14:28:50.437Z,1.50
2023-03-14T14:31:26.201Z,1.65
2023-03-14T14:34:04.246Z,1.13
2023-03-14T14:36:51.100Z,1.30
2023-03-14T14:39:23.694Z,1.13
2023-03-14T14:41:53.050Z,1.20
2023-03-14T14:44:28.055Z,1.50
2023-03-14T14:46:56.715Z,1.55
2023-03-14T14:49:33.152Z,1.33
2023-03-14T14:52:14.047Z,1.45
2023-03-14T14:54:58.253Z,1.00
2023-03-14T14:57:31.140Z,1.02
2023-03-14T15:00:03.549Z,1.50
2023-03-14T15:02:45.292Z,0.90
2023-03-14T15:05:16.988Z,0.80
2023-03-14T15:07:43.626Z,0.50
2023-03-14T15:10:13.339Z,1.30
2023-03-14T15:12:39.973Z,0.90
2023-03-14T15:15:07.836Z,0.98
2023-03-14T15:17:34.630Z,0.95
2023-03-14T15:20:01.307Z,1.00
2023-03-14T15:22:31.117Z,1.08
2023-03-14T15:24:57.729Z,1.10
2023-03-14T15:27:24.496Z,1.27
2023-03-14T15:29:51.552Z,1.45
2023-03-14T15:32:19.197Z,1.70
2023-03-14T15:34:45.870Z,1.35
2023-03-14T15:37:14.610Z,1.40
2023-03-14T15:39:43.071Z,1.45
2023-03-14T15:42:10.155Z,1.10
2023-03-14T15:44:37.311Z,1.88
2023-03-14T15:47:04.091Z,1.70
2023-03-14T15:49:30.906Z,1.52
2023-03-14T15:51:58.168Z,1.42
2023-03-14T15:54:29.246Z,1.65
2023-03-14T15:56:57.377Z,1.20
2023-03-14T15:59:25.151Z,1.23
2023-03-14T16:01:52.084Z,1.20
2023-03-14T16:04:19.224Z,1.35
2023-03-14T16:06:46.432Z,0.77
2023-03-14T16:09:13.286Z,0.75
2023-03-14T16:11:40.442Z,0.98
2023-03-14T16:14:07.519Z,1.27
2023-03-14T16:16:34.371Z,1.20
2023-03-14T16:19:01.037Z,1.40
2023-03-14T16:21:28.191Z,1.58
2023-03-14T16:23:54.947Z,1.17
2023-03-14T16:26:21.521Z,1.67
2023-03-14T16:28:48.567Z,1.42
2023-03-14T16:31:18.887Z,1.50
2023-03-14T16:33:45.692Z,1.75
2023-03-14T16:36:14.103Z,1.30
2023-03-14T16:38:43.643Z,1.95
2023-03-14T16:41:10.104Z,1.25
2023-03-14T16:43:40.091Z,1.17
2023-03-14T16:46:09.411Z,1.60
2023-03-14T16:48:36.162Z,1.17
2023-03-14T16:51:02.895Z,1.90
2023-03-14T16:53:36.206Z,1.02
2023-03-14T16:56:03.238Z,1.23
2023-03-14T16:58:33.024Z,1.48
2023-03-14T17:01:00.423Z,1.30
2023-03-14T17:03:28.011Z,1.05
2023-03-14T17:05:54.705Z,1.65
2023-03-14T17:08:21.535Z,1.25
2023-03-14T17:10:48.248Z,0.98
2023-03-14T17:13:15.103Z,1.27
2023-03-14T17:15:47.057Z,2.00
2023-03-14T17:18:13.902Z,1.30
2023-03-14T17:21:00.177Z,1.40
2023-03-14T17:23:28.682Z,2.20
2023-03-14T17:25:55.858Z,1.48
2023-03-14T17:28:25.453Z,1.60
2023-03-14T17:31:09.506Z,1.70
2023-03-14T17:33:37.903Z,1.80
2023-03-14T17:36:06.736Z,1.27
2023-03-14T17:38:37.285Z,1.77
2023-03-14T17:41:04.699Z,1.42
2023-03-14T17:43:32.419Z,1.58
2023-03-14T17:46:00.944Z,1.65
2023-03-14T17:48:28.235Z,1.70
2023-03-14T17:50:57.075Z,1.70
2023-03-14T17:53:25.758Z,1.10
2023-03-14T17:55:53.408Z,1.73
2023-03-14T17:58:19.946Z,1.30
2023-03-14T18:00:46.548Z,1.23
2023-03-14T18:03:14.159Z,1.65
2023-03-14T18:05:41.753Z,1.38
2023-03-14T18:08:13.571Z,1.80
2023-03-14T18:10:40.479Z,2.47
2023-03-14T18:13:07.414Z,1.10
2023-03-14T18:15:34.009Z,2.03
2023-03-14T18:18:03.975Z,2.50
2023-03-14T18:20:30.927Z,2.53
2023-03-14T18:22:57.722Z,1.40
2023-03-14T18:25:24.405Z,1.55
2023-03-14T18:27:51.242Z,1.60
2023-03-14T18:30:20.174Z,1.83
2023-03-14T18:32:46.967Z,2.10
2023-03-14T18:35:13.712Z,1.20
2023-03-14T18:37:40.358Z,1.73
2023-03-14T18:40:10.457Z,1.92
2023-03-14T18:42:37.217Z,2.22
2023-03-14T18:45:04.520Z,1.70
2023-03-14T18:47:35.782Z,1.67
2023-03-14T18:50:06.619Z,1.50
2023-03-14T18:52:33.198Z,1.48
2023-03-14T18:55:01.508Z,1.48
2023-03-14T18:57:28.234Z,1.27
2023-03-14T18:59:56.715Z,1.77
2023-03-14T19:02:26.605Z,1.77
2023-03-14T19:04:54.064Z,2.10
2023-03-14T19:07:21.093Z,1.80
2023-03-14T19:09:47.772Z,1.60
2023-03-14T19:12:14.586Z,2.10
2023-03-14T19:14:41.156Z,1.90
2023-03-14T19:17:07.784Z,2.15
2023-03-14T19:19:34.525Z,2.15
2023-03-14T19:22:01.351Z,1.92
2023-03-14T19:24:28.335Z,1.38
2023-03-14T19:27:00.322Z,2.33
2023-03-14T19:29:27.857Z,1.85
2023-03-14T19:32:01.428Z,1.50
2023-03-14T19:34:48.710Z,1.45
2023-03-14T19:37:21.214Z,1.65
2023-03-14T19:39:47.896Z,1.65
2023-03-14T19:42:14.600Z,2.05
2023-03-14T19:44:41.238Z,1.98
2023-03-14T19:47:07.982Z,1.40
2023-03-14T19:49:34.750Z,1.75
2023-03-14T19:52:01.611Z,1.90
2023-03-14T19:54:28.472Z,1.58
2023-03-14T19:56:55.270Z,1.63
2023-03-14T19:59:22.130Z,1.15
2023-03-14T20:01:49.534Z,1.65
2023-03-14T20:04:16.255Z,1.45
2023-03-14T20:06:42.872Z,1.38
2023-03-14T20:09:10.817Z,1.58
2023-03-14T20:11:40.699Z,1.50
2023-03-14T20:14:09.337Z,2.40
2023-03-14T20:16:37.587Z,2.35
2023-03-14T20:19:06.524Z,2.03
2023-03-14T20:21:33.826Z,2.53
2023-03-14T20:24:01.184Z,2.08
2023-03-14T20:26:29.526Z,2.25
2023-03-14T20:28:56.721Z,1.90
2023-03-14T20:31:23.450Z,2.15
2023-03-14T20:33:51.509Z,2.08
2023-03-14T20:36:18.623Z,2.20
2023-03-14T20:38:45.254Z,2.33
2023-03-14T20:41:12.398Z,2.85
2023-03-14T20:43:39.563Z,2.38
2023-03-14T20:46:06.648Z,3.15
2023-03-14T20:48:33.521Z,3.38
2023-03-14T20:51:01.688Z,2.60
2023-03-14T20:53:28.365Z,2.70
2023-03-14T20:55:57.327Z,2.42
2023-03-14T20:58:25.414Z,2.35
2023-03-14T21:00:54.729Z,2.78
2023-03-14T21:03:23.266Z,3.10
2023-03-14T21:05:50.935Z,2.80
2023-03-14T21:08:21.585Z,2.80
2023-03-14T21:10:53.372Z,3.08
2023-03-14T21:13:20.409Z,2.92
2023-03-14T21:15:47.185Z,2.03
2023-03-14T21:18:13.916Z,2.38
2023-03-14T21:20:42.261Z,2.40
2023-03-14T21:23:11.253Z,2.30
2023-03-14T21:25:37.980Z,2.83
2023-03-14T21:28:05.005Z,2.65
2023-03-14T21:30:33.392Z,2.20
2023-03-14T21:33:00.497Z,2.30
2023-03-14T21:35:27.496Z,1.90
2023-03-14T21:37:54.058Z,2.40
2023-03-14T21:40:21.360Z,2.03
2023-03-14T21:42:48.839Z,2.63
2023-03-14T21:45:16.764Z,2.22
2023-03-14T21:47:47.470Z,1.83
2023-03-14T21:50:17.457Z,2.30
2023-03-14T21:52:46.437Z,2.45
2023-03-14T21:55:17.562Z,2.03
2023-03-14T21:57:46.427Z,2.25
2023-03-14T22:00:17.160Z,2.30
2023-03-14T22:02:58.127Z,2.50
2023-03-14T22:05:31.663Z,2.03
2023-03-14T22:07:58.309Z,2.17
2023-03-14T22:10:25.268Z,2.38
2023-03-14T22:12:52.113Z,1.85
2023-03-14T22:15:18.643Z,2.10
2023-03-14T22:17:45.272Z,2.17
2023-03-14T22:20:13.912Z,2.60
2023-03-14T22:22:41.238Z,1.95
2023-03-14T22:25:08.471Z,1.92
2023-03-14T22:27:35.333Z,1.80
2023-03-14T22:30:02.053Z,1.60
2023-03-14T22:32:29.071Z,1.70
2023-03-14T22:34:55.884Z,2.10
2023-03-14T22:37:23.511Z,2.15
2023-03-14T22:39:50.174Z,1.98
2023-03-14T22:42:16.876Z,1.70
2023-03-14T22:44:43.505Z,1.27
2023-03-14T22:47:10.249Z,1.70
2023-03-14T22:49:38.030Z,1.45
2023-03-14T22:52:05.021Z,1.33
2023-03-14T22:54:31.540Z,1.67
2023-03-14T22:56:58.154Z,1.70
2023-03-14T22:59:24.728Z,1.52
2023-03-14T23:01:51.326Z,1.52
2023-03-14T23:04:17.976Z,1.48
2023-03-14T23:06:44.585Z,1.63
2023-03-14T23:09:12.062Z,2.05
2023-03-14T23:11:39.699Z,1.73
2023-03-14T23:14:06.892Z,2.10
2023-03-14T23:16:40.043Z,1.75
2023-03-14T23:19:07.204Z,1.40
2023-03-14T23:21:33.803Z,1.90
2023-03-14T23:24:05.664Z,1.83
2023-03-14T23:26:35.615Z,1.85
2023-03-14T23:29:07.096Z,1.90
2023-03-14T23:31:34.038Z,1.70
2023-03-14T23:34:01.105Z,2.25
2023-03-14T23:36:27.748Z,1.58
2023-03-14T23:38:54.421Z,1.90
2023-03-14T23:41:21.228Z,2.22
2023-03-14T23:43:48.561Z,1.58
2023-03-14T23:46:16.612Z,1.95
2023-03-14T23:48:46.949Z,1.50
2023-03-14T23:51:15.048Z,1.17
2023-03-14T23:53:42.563Z,2.35
2023-03-14T23:56:12.010Z,1.73
2023-03-14T23:58:39.212Z,1.30
